createdAt,value
2023-01-19T00:01:32.013Z,5.30
2023-01-19T00:03:58.472Z,1.80
2023-01-19T00:06:25.095Z,3.05
2023-01-19T00:08:51.573Z,2.00
2023-01-19T00:11:18.821Z,1.08
2023-01-19T00:13:53.557Z,4.13
2023-01-19T00:16:22.963Z,1.40
2023-01-19T00:18:51.728Z,13.40
2023-01-19T00:21:18.836Z,2.40
2023-01-19T00:23:47.548Z,4.90
2023-01-19T00:26:17.196Z,5.78
2023-01-19T00:28:44.849Z,9.90
2023-01-19T00:31:11.838Z,6.55
2023-01-19T00:33:38.315Z,5.57
2023-01-19T00:36:05.839Z,7.78
2023-01-19T00:38:32.326Z,12.77
2023-01-19T00:40:58.789Z,10.60
2023-01-19T00:43:25.245Z,14.52
2023-01-19T00:45:51.678Z,7.65
2023-01-19T00:48:18.133Z,13.68
2023-01-19T00:50:44.557Z,19.35
2023-01-19T00:53:11.125Z,9.00
2023-01-19T00:55:37.550Z,7.97
2023-01-19T00:58:04.020Z,13.15
2023-01-19T01:00:30.849Z,15.38
2023-01-19T01:02:57.772Z,6.80
2023-01-19T01:05:24.715Z,17.58
2023-01-19T01:07:51.259Z,10.75
2023-01-19T01:10:23.626Z,21.45
2023-01-19T01:12:57.364Z,3.30
2023-01-19T01:15:27.410Z,5.82
2023-01-19T01:17:54.038Z,5.38
2023-01-19T01:20:23.897Z,4.82
2023-01-19T01:22:51.890Z,10.23
2023-01-19T01:25:22.445Z,8.35
2023-01-19T01:27:48.930Z,9.07
2023-01-19T01:30:16.463Z,13.48
2023-01-19T01:32:43.129Z,12.25
2023-01-19T01:35:10.193Z,23.52
2023-01-19T01:37:37.787Z,13.85
2023-01-19T01:40:05.783Z,15.00
2023-01-19T01:42:33.405Z,8.32
2023-01-19T01:45:02.334Z,16.92
2023-01-19T01:47:38.122Z,6.63
2023-01-19T01:50:22.360Z,5.22
2023-01-19T01:53:07.713Z,6.00
2023-01-19T01:55:41.083Z,8.63
2023-01-19T01:58:10.537Z,2.80
2023-01-19T02:00:56.771Z,9.30
2023-01-19T02:03:25.442Z,7.32
2023-01-19T02:05:57.441Z,3.58
2023-01-19T02:09:06.917Z,9.30
2023-01-19T02:11:52.861Z,9.45
2023-01-19T02:14:19.247Z,7.40
2023-01-19T02:16:46.435Z,8.18
2023-01-19T02:19:21.837Z,8.40
2023-01-19T02:22:03.243Z,8.48
2023-01-19T02:24:30.111Z,12.95
2023-01-19T02:26:57.851Z,12.05
2023-01-19T02:29:26.441Z,15.02
2023-01-19T02:31:53.939Z,15.85
2023-01-19T02:34:21.504Z,15.93
2023-01-19T02:36:52.533Z,14.48
2023-01-19T02:39:22.415Z,23.00
2023-01-19T02:41:53.222Z,16.05
2023-01-19T02:44:21.054Z,14.65
2023-01-19T02:46:47.442Z,11.85
2023-01-19T02:49:13.847Z,13.80
2023-01-19T02:51:43.319Z,18.02
2023-01-19T02:54:31.105Z,13.93
2023-01-19T02:57:21.290Z,12.93
2023-01-19T03:00:08.072Z,26.33
2023-01-19T03:02:53.173Z,18.73
2023-01-19T03:05:41.283Z,11.40
2023-01-19T03:08:19.447Z,20.30
2023-01-19T03:11:07.873Z,12.52
2023-01-19T03:13:53.723Z,13.82
2023-01-19T03:16:44.120Z,13.63
2023-01-19T03:19:33.371Z,14.75
2023-01-19T03:22:05.617Z,12.73
2023-01-19T03:24:37.945Z,12.90
2023-01-19T03:27:10.306Z,16.77
2023-01-19T03:29:39.183Z,14.65
2023-01-19T03:32:11.881Z,12.50
2023-01-19T03:34:40.664Z,14.40
2023-01-19T03:37:09.987Z,15.32
2023-01-19T03:39:36.402Z,13.70
2023-01-19T03:42:06.469Z,14.43
2023-01-19T03:44:37.250Z,22.23
2023-01-19T03:47:06.090Z,12.95
2023-01-19T03:49:34.586Z,13.38
2023-01-19T03:52:01.137Z,16.38
2023-01-19T03:54:28.225Z,11.10
2023-01-19T03:56:54.649Z,10.52
2023-01-19T03:59:21.858Z,10.82
2023-01-19T04:01:49.003Z,15.70
2023-01-19T04:04:16.021Z,9.25
2023-01-19T04:06:43.287Z,15.32
2023-01-19T04:09:09.876Z,14.90
2023-01-19T04:11:36.422Z,11.23
2023-01-19T04:14:02.856Z,12.57
2023-01-19T04:16:29.431Z,11.48
2023-01-19T04:18:56.394Z,12.25
2023-01-19T04:21:22.877Z,14.32
2023-01-19T04:23:49.931Z,12.98
2023-01-19T04:26:16.612Z,12.65
2023-01-19T04:28:43.138Z,10.80
2023-01-19T04:31:09.571Z,13.15
2023-01-19T04:33:36.287Z,11.07
2023-01-19T04:36:04.110Z,7.45
2023-01-19T04:38:30.888Z,9.65
2023-01-19T04:40:57.326Z,12.80
2023-01-19T04:43:24.026Z,8.80
2023-01-19T04:45:50.825Z,11.02
2023-01-19T04:48:18.600Z,6.78
2023-01-19T04:50:45.555Z,11.00
2023-01-19T04:53:13.588Z,5.90
2023-01-19T04:55:40.103Z,5.68
2023-01-19T04:58:06.493Z,13.68
2023-01-19T05:00:33.749Z,10.05
2023-01-19T05:03:01.480Z,9.85
2023-01-19T05:05:28.296Z,12.23
2023-01-19T05:07:54.929Z,14.48
2023-01-19T05:10:21.394Z,18.08
2023-01-19T05:12:47.843Z,7.45
2023-01-19T05:15:14.258Z,11.55
2023-01-19T05:17:40.664Z,14.70
2023-01-19T05:20:09.484Z,12.65
2023-01-19T05:22:35.858Z,11.63
2023-01-19T05:25:02.321Z,15.27
2023-01-19T05:27:28.706Z,11.98
2023-01-19T05:29:55.131Z,10.35
2023-01-19T05:32:21.571Z,14.48
2023-01-19T05:34:48.003Z,15.73
2023-01-19T05:37:14.405Z,11.02
2023-01-19T05:39:40.790Z,9.65
2023-01-19T05:42:07.242Z,18.40
2023-01-19T05:44:33.594Z,6.90
2023-01-19T05:47:00.151Z,11.00
2023-01-19T05:49:26.648Z,13.38
2023-01-19T05:51:53.067Z,8.45
2023-01-19T05:54:19.578Z,8.13
2023-01-19T05:56:46.157Z,12.05
2023-01-19T05:59:12.556Z,10.40
2023-01-19T06:01:40.309Z,9.10
2023-01-19T06:04:07.125Z,8.57
2023-01-19T06:06:33.686Z,6.30
2023-01-19T06:09:00.071Z,14.10
2023-01-19T06:11:26.529Z,7.78
2023-01-19T06:13:53.000Z,8.77
2023-01-19T06:16:19.488Z,9.85
2023-01-19T06:18:46.144Z,7.07
2023-01-19T06:21:14.217Z,6.22
2023-01-19T06:23:40.857Z,10.50
2023-01-19T06:26:07.285Z,8.55
2023-01-19T06:28:33.746Z,9.95
2023-01-19T06:31:00.268Z,4.22
2023-01-19T06:33:27.813Z,8.77
2023-01-19T06:35:54.888Z,7.45
2023-01-19T06:38:22.134Z,10.52
2023-01-19T06:40:54.567Z,10.95
2023-01-19T06:43:22.133Z,14.07
2023-01-19T06:45:49.097Z,6.57
2023-01-19T06:48:16.459Z,9.30
2023-01-19T06:50:45.222Z,10.10
2023-01-19T06:53:12.257Z,12.85
2023-01-19T06:55:39.128Z,10.18
2023-01-19T06:58:06.499Z,11.25
2023-01-19T07:00:32.937Z,7.47
2023-01-19T07:02:59.626Z,9.77
2023-01-19T07:05:26.494Z,4.97
2023-01-19T07:07:54.881Z,6.35
2023-01-19T07:10:22.547Z,7.68
2023-01-19T07:12:49.050Z,8.82
2023-01-19T07:15:17.706Z,9.02
2023-01-19T07:17:44.277Z,10.57
2023-01-19T07:20:14.195Z,9.20
2023-01-19T07:22:45.637Z,6.10
2023-01-19T07:25:13.352Z,10.30
2023-01-19T07:27:40.460Z,7.97
2023-01-19T07:30:08.233Z,8.52
2023-01-19T07:32:34.807Z,6.22
2023-01-19T07:35:01.221Z,8.52
2023-01-19T07:37:27.602Z,8.20
2023-01-19T07:39:54.068Z,11.32
2023-01-19T07:42:20.519Z,8.00
2023-01-19T07:44:47.496Z,8.13
2023-01-19T07:47:13.969Z,5.05
2023-01-19T07:49:40.422Z,8.82
2023-01-19T07:52:06.865Z,7.85
2023-01-19T07:54:33.668Z,5.70
2023-01-19T07:57:00.782Z,6.82
2023-01-19T07:59:30.172Z,4.63
2023-01-19T08:01:59.298Z,8.27
2023-01-19T08:04:28.967Z,5.90
2023-01-19T08:06:56.432Z,5.18
2023-01-19T08:09:26.659Z,3.83
2023-01-19T08:11:53.068Z,7.45
2023-01-19T08:14:19.491Z,5.43
2023-01-19T08:16:45.918Z,7.57
2023-01-19T08:19:12.361Z,7.00
2023-01-19T08:21:38.982Z,7.07
2023-01-19T08:24:05.860Z,6.78
2023-01-19T08:26:34.702Z,5.03
2023-01-19T08:29:04.030Z,6.20
2023-01-19T08:31:30.807Z,7.50
2023-01-19T08:33:57.885Z,3.08
2023-01-19T08:36:25.150Z,7.30
2023-01-19T08:38:51.929Z,5.45
2023-01-19T08:41:18.406Z,6.65
2023-01-19T08:43:45.372Z,4.03
2023-01-19T08:46:12.318Z,6.18
2023-01-19T08:48:40.038Z,2.80
2023-01-19T08:51:06.677Z,3.78
2023-01-19T08:53:33.242Z,5.07
2023-01-19T08:56:02.551Z,4.03
2023-01-19T08:58:29.426Z,3.78
2023-01-19T09:00:56.252Z,6.93
2023-01-19T09:03:22.938Z,6.10
2023-01-19T09:05:49.486Z,4.65
2023-01-19T09:08:16.720Z,10.18
2023-01-19T09:10:51.156Z,6.57
2023-01-19T09:13:18.978Z,5.55
2023-01-19T09:15:45.571Z,4.25
2023-01-19T09:18:20.047Z,6.68
2023-01-19T09:20:48.595Z,4.38
2023-01-19T09:23:17.462Z,7.43
2023-01-19T09:25:46.284Z,7.05
2023-01-19T09:28:14.734Z,4.43
2023-01-19T09:30:42.699Z,5.63
2023-01-19T09:33:11.699Z,3.03
2023-01-19T09:35:39.251Z,7.80
2023-01-19T09:38:07.491Z,4.70
2023-01-19T09:40:36.366Z,1.58
2023-01-19T09:43:19.870Z,3.55
2023-01-19T09:45:57.145Z,7.60
2023-01-19T09:48:32.760Z,2.42
2023-01-19T09:51:03.090Z,1.88
2023-01-19T09:53:57.199Z,6.63
2023-01-19T09:56:24.169Z,3.00
2023-01-19T09:58:51.973Z,2.97
2023-01-19T10:01:33.267Z,4.65
2023-01-19T10:04:26.585Z,6.18
2023-01-19T10:07:03.838Z,8.65
2023-01-19T10:09:35.990Z,2.88
2023-01-19T10:12:17.939Z,5.03
2023-01-19T10:15:01.502Z,4.40
2023-01-19T10:17:46.369Z,9.52
2023-01-19T10:20:37.109Z,4.72
2023-01-19T10:23:17.236Z,2.85
2023-01-19T10:25:44.277Z,5.40
2023-01-19T10:28:13.775Z,4.22
2023-01-19T10:30:44.112Z,2.22
2023-01-19T10:33:13.799Z,3.45
2023-01-19T10:35:40.307Z,6.20
2023-01-19T10:38:14.059Z,3.53
2023-01-19T10:41:06.979Z,5.20
2023-01-19T10:43:46.918Z,8.15
2023-01-19T10:46:21.461Z,3.92
2023-01-19T10:51:15.522Z,2.22
2023-01-19T10:53:52.721Z,8.15
2023-01-19T10:56:25.264Z,5.43
2023-01-19T10:58:51.806Z,4.43
2023-01-19T11:01:29.758Z,8.30
2023-01-19T11:04:05.600Z,5.20
2023-01-19T11:06:34.363Z,2.80
2023-01-19T11:09:18.861Z,3.65
2023-01-19T11:11:51.592Z,7.68
2023-01-19T11:14:24.200Z,8.10
2023-01-19T11:16:56.836Z,5.93
2023-01-19T11:19:32.512Z,8.05
2023-01-19T11:22:14.311Z,3.60
2023-01-19T11:24:40.901Z,3.45
2023-01-19T11:27:07.653Z,4.82
2023-01-19T11:29:34.405Z,3.42
2023-01-19T11:32:22.278Z,3.95
2023-01-19T11:34:49.737Z,4.43
2023-01-19T11:37:16.101Z,6.68
2023-01-19T11:39:51.172Z,5.65
2023-01-19T11:42:18.762Z,3.88
2023-01-19T11:44:54.028Z,9.05
2023-01-19T11:47:32.998Z,3.67
2023-01-19T11:50:22.976Z,2.42
2023-01-19T11:53:04.433Z,4.82
2023-01-19T11:55:43.593Z,9.95
2023-01-19T11:58:16.291Z,5.75
2023-01-19T12:00:52.932Z,2.80
2023-01-19T12:03:23.055Z,4.55
2023-01-19T12:05:55.290Z,8.30
2023-01-19T12:08:31.190Z,2.75
2023-01-19T12:11:00.160Z,3.05
2023-01-19T12:13:27.867Z,4.35
2023-01-19T12:16:20.103Z,1.65
2023-01-19T12:18:58.777Z,4.22
2023-01-19T12:21:25.349Z,2.97
2023-01-19T12:24:12.704Z,2.55
2023-01-19T12:26:53.363Z,5.25
2023-01-19T12:29:22.344Z,1.67
2023-01-19T12:32:13.415Z,2.00
2023-01-19T12:34:46.501Z,2.90
2023-01-19T12:37:31.093Z,1.10
2023-01-19T12:40:01.770Z,1.98
2023-01-19T12:42:29.339Z,2.58
2023-01-19T12:45:06.859Z,1.45
2023-01-19T12:47:34.590Z,2.97
2023-01-19T12:50:06.997Z,6.65
2023-01-19T12:52:51.434Z,3.10
2023-01-19T12:55:23.235Z,1.95
2023-01-19T12:57:56.893Z,3.05
2023-01-19T13:00:23.201Z,5.13
2023-01-19T13:02:51.206Z,3.15
2023-01-19T13:05:25.077Z,4.22
2023-01-19T13:08:15.819Z,1.65
2023-01-19T13:11:00.709Z,3.03
2023-01-19T13:13:33.258Z,1.40
2023-01-19T13:16:19.809Z,7.55
2023-01-19T13:18:47.907Z,5.10
2023-01-19T13:21:32.535Z,5.18
2023-01-19T13:24:00.300Z,3.20
2023-01-19T13:26:49.841Z,4.40
2023-01-19T13:29:36.057Z,3.10
2023-01-19T13:32:17.524Z,2.22
2023-01-19T13:34:54.496Z,3.53
2023-01-19T13:37:23.860Z,2.08
2023-01-19T13:39:53.722Z,4.57
2023-01-19T13:42:33.496Z,2.15
2023-01-19T13:45:03.511Z,3.42
2023-01-19T13:47:48.433Z,2.17
2023-01-19T13:52:51.329Z,1.15
2023-01-19T13:55:18.799Z,4.47
2023-01-19T13:57:46.922Z,2.30
2023-01-19T14:00:16.401Z,2.33
2023-01-19T14:02:54.956Z,1.77
2023-01-19T14:05:29.183Z,0.60
2023-01-19T14:08:07.896Z,3.05
2023-01-19T14:10:38.979Z,3.22
2023-01-19T14:13:17.659Z,3.53
2023-01-19T14:15:46.343Z,3.00
2023-01-19T14:18:18.627Z,4.00
2023-01-19T14:20:53.892Z,3.45
2023-01-19T14:23:42.097Z,1.95
2023-01-19T14:26:47.678Z,3.03
2023-01-19T14:29:17.819Z,2.95
2023-01-19T14:31:45.414Z,5.43
2023-01-19T14:34:43.157Z,5.80
2023-01-19T14:37:18.207Z,5.20
2023-01-19T14:39:47.387Z,4.07
2023-01-19T14:42:33.020Z,6.00
2023-01-19T14:45:07.017Z,4.43
2023-01-19T14:47:40.451Z,3.55
2023-01-19T14:50:36.783Z,3.28
2023-01-19T14:53:05.548Z,9.10
2023-01-19T14:55:46.344Z,4.57
2023-01-19T14:58:15.565Z,4.78
2023-01-19T15:00:42.830Z,4.22
2023-01-19T15:03:09.973Z,3.70
2023-01-19T15:05:41.689Z,4.72
2023-01-19T15:08:14.745Z,7.95
2023-01-19T15:10:41.508Z,5.22
2023-01-19T15:13:21.893Z,1.38
2023-01-19T15:15:49.876Z,5.00
2023-01-19T15:18:20.872Z,4.38
2023-01-19T15:20:47.367Z,2.13
2023-01-19T15:23:13.949Z,1.70
2023-01-19T15:25:40.514Z,3.47
2023-01-19T15:28:12.893Z,2.88
2023-01-19T15:30:39.973Z,2.42
2023-01-19T15:33:06.585Z,2.08
2023-01-19T15:35:33.166Z,4.10
2023-01-19T15:37:59.609Z,3.65
2023-01-19T15:40:26.077Z,4.15
2023-01-19T15:42:52.476Z,2.60
2023-01-19T15:46:01.258Z,0.98
2023-01-19T15:48:28.170Z,4.57
2023-01-19T15:50:54.677Z,6.03
2023-01-19T15:53:23.749Z,8.98
2023-01-19T15:55:52.484Z,2.88
2023-01-19T15:58:20.651Z,1.88
2023-01-19T16:00:56.602Z,4.80
2023-01-19T16:03:24.293Z,3.88
2023-01-19T16:05:51.324Z,4.78
2023-01-19T16:08:17.773Z,2.55
2023-01-19T16:10:44.317Z,1.30
2023-01-19T16:13:11.678Z,0.77
2023-01-19T16:15:39.577Z,3.35
2023-01-19T16:18:06.185Z,0.95
2023-01-19T16:20:32.668Z,3.10
2023-01-19T16:23:13.828Z,1.95
2023-01-19T16:25:40.810Z,3.35
2023-01-19T16:28:08.161Z,1.48
2023-01-19T16:30:34.620Z,1.63
2023-01-19T16:33:01.155Z,2.05
2023-01-19T16:35:27.728Z,1.42
2023-01-19T16:37:54.179Z,1.88
2023-01-19T16:40:20.735Z,2.05
2023-01-19T16:42:47.311Z,11.30
2023-01-19T16:45:13.846Z,11.60
2023-01-19T16:47:40.294Z,11.48
2023-01-19T16:50:10.058Z,4.68
2023-01-19T16:52:36.688Z,8.15
2023-01-19T16:55:06.932Z,4.20
2023-01-19T16:57:33.328Z,4.05
2023-01-19T16:59:59.757Z,8.68
2023-01-19T17:02:26.292Z,7.03
2023-01-19T17:04:52.760Z,3.83
2023-01-19T17:07:19.491Z,5.32
2023-01-19T17:09:45.990Z,7.55
2023-01-19T17:12:12.579Z,4.72
2023-01-19T17:14:39.733Z,6.18
2023-01-19T17:17:09.208Z,4.68
2023-01-19T17:19:35.623Z,4.53
2023-01-19T17:22:02.035Z,4.10
2023-01-19T17:24:28.390Z,2.55
2023-01-19T17:26:55.058Z,6.68
2023-01-19T17:29:21.603Z,5.32
2023-01-19T17:31:50.283Z,1.55
2023-01-19T17:34:17.299Z,6.72
2023-01-19T17:36:43.754Z,5.63
2023-01-19T17:39:14.650Z,7.43
2023-01-19T17:41:41.255Z,6.35
2023-01-19T17:44:07.756Z,6.38
2023-01-19T17:46:38.120Z,3.67
2023-01-19T17:49:06.629Z,2.42
2023-01-19T17:51:33.944Z,2.10
2023-01-19T17:54:00.900Z,1.63
2023-01-19T17:56:30.286Z,1.58
2023-01-19T17:58:57.860Z,3.97
2023-01-19T18:01:27.071Z,0.70
2023-01-19T18:03:54.029Z,1.27
2023-01-19T18:06:21.090Z,2.78
2023-01-19T18:08:48.793Z,2.20
2023-01-19T18:11:16.955Z,3.47
2023-01-19T18:13:45.370Z,3.03
2023-01-19T18:16:18.311Z,2.40
2023-01-19T18:18:44.776Z,3.13
2023-01-19T18:21:13.257Z,1.17
2023-01-19T18:23:40.530Z,1.83
2023-01-19T18:26:09.500Z,3.75
2023-01-19T18:28:36.499Z,2.40
2023-01-19T18:31:07.656Z,4.88
2023-01-19T18:33:34.432Z,5.63
2023-01-19T18:36:01.129Z,2.38
2023-01-19T18:38:27.629Z,3.53
2023-01-19T18:41:04.793Z,2.67
2023-01-19T18:43:31.284Z,2.58
2023-01-19T18:45:57.885Z,3.45
2023-01-19T18:48:24.923Z,7.13
2023-01-19T18:50:51.917Z,8.55
2023-01-19T18:53:18.620Z,4.85
2023-01-19T18:55:55.403Z,3.80
2023-01-19T18:58:22.076Z,5.68
2023-01-19T19:00:49.305Z,1.77
2023-01-19T19:03:16.371Z,2.72
2023-01-19T19:05:43.355Z,6.47
2023-01-19T19:08:09.734Z,4.78
2023-01-19T19:10:36.247Z,3.83
2023-01-19T19:13:03.343Z,1.58
2023-01-19T19:15:32.345Z,2.83
2023-01-19T19:17:58.843Z,4.55
2023-01-19T19:20:25.627Z,2.60
2023-01-19T19:22:52.076Z,3.13
2023-01-19T19:25:18.770Z,1.67
2023-01-19T19:27:47.739Z,1.58
2023-01-19T19:30:14.397Z,2.70
2023-01-19T19:32:41.193Z,1.63
2023-01-19T19:35:07.973Z,1.65
2023-01-19T19:37:34.371Z,1.63
2023-01-19T19:40:00.896Z,1.92
2023-01-19T19:42:30.020Z,2.08
2023-01-19T19:44:56.631Z,12.13
2023-01-19T19:47:24.413Z,15.85
2023-01-19T19:49:50.932Z,15.20
2023-01-19T19:52:17.432Z,10.38
2023-01-19T19:54:45.099Z,7.40
2023-01-19T19:57:11.531Z,7.03
2023-01-19T19:59:37.957Z,8.60
2023-01-19T20:02:04.433Z,10.27
2023-01-19T20:04:30.875Z,8.50
2023-01-19T20:06:59.159Z,8.25
2023-01-19T20:09:25.844Z,5.55
2023-01-19T20:11:52.855Z,8.88
2023-01-19T20:14:19.285Z,8.70
2023-01-19T20:16:45.777Z,6.88
2023-01-19T20:19:12.232Z,5.35
2023-01-19T20:21:41.797Z,7.68
2023-01-19T20:24:14.498Z,5.70
2023-01-19T20:26:44.009Z,6.72
2023-01-19T20:29:11.143Z,5.43
2023-01-19T20:31:50.146Z,6.55
2023-01-19T20:34:19.839Z,4.75
2023-01-19T20:36:51.184Z,4.50
2023-01-19T20:39:19.392Z,3.85
2023-01-19T20:41:45.923Z,4.03
2023-01-19T20:44:19.111Z,4.57
2023-01-19T20:46:45.858Z,6.30
2023-01-19T20:49:12.687Z,5.43
2023-01-19T20:51:43.179Z,3.83
2023-01-19T20:54:11.698Z,5.07
2023-01-19T20:56:38.255Z,5.68
2023-01-19T20:59:04.670Z,2.30
2023-01-19T21:01:31.272Z,4.07
2023-01-19T21:03:57.833Z,2.60
2023-01-19T21:06:25.061Z,4.53
2023-01-19T21:08:51.901Z,4.82
2023-01-19T21:11:20.910Z,6.47
2023-01-19T21:13:48.828Z,3.60
2023-01-19T21:16:15.601Z,3.88
2023-01-19T21:18:42.082Z,5.05
2023-01-19T21:21:14.935Z,4.40
2023-01-19T21:23:47.625Z,4.07
2023-01-19T21:26:14.371Z,5.30
2023-01-19T21:28:41.237Z,4.30
2023-01-19T21:31:13.308Z,5.60
2023-01-19T21:33:40.468Z,4.63
2023-01-19T21:36:08.239Z,3.95
2023-01-19T21:38:36.492Z,3.13
2023-01-19T21:41:08.310Z,2.65
2023-01-19T21:43:36.871Z,3.20
2023-01-19T21:46:16.355Z,2.67
2023-01-19T21:48:42.905Z,1.70
2023-01-19T21:51:09.578Z,2.83
2023-01-19T21:53:36.036Z,1.63
2023-01-19T21:56:02.481Z,2.30
2023-01-19T21:58:28.908Z,1.88
2023-01-19T22:01:00.773Z,2.42
2023-01-19T22:03:28.391Z,2.90
2023-01-19T22:05:55.955Z,2.80
2023-01-19T22:08:23.732Z,3.08
2023-01-19T22:10:50.208Z,2.38
2023-01-19T22:13:16.658Z,2.47
2023-01-19T22:15:43.101Z,3.08
2023-01-19T22:18:10.300Z,2.65
2023-01-19T22:20:36.694Z,7.07
2023-01-19T22:23:03.156Z,3.13
2023-01-19T22:25:31.952Z,3.10
2023-01-19T22:27:59.288Z,3.13
2023-01-19T22:30:25.832Z,3.08
2023-01-19T22:32:53.048Z,2.45
2023-01-19T22:35:19.610Z,1.90
2023-01-19T22:37:46.047Z,2.47
2023-01-19T22:40:12.874Z,2.97
2023-01-19T22:42:39.340Z,3.17
2023-01-19T22:45:06.297Z,3.75
2023-01-19T22:47:32.731Z,2.88
2023-01-19T22:49:59.143Z,4.55
2023-01-19T22:52:25.577Z,2.95
2023-01-19T22:54:56.201Z,4.60
2023-01-19T22:57:22.593Z,8.68
2023-01-19T22:59:48.973Z,6.75
2023-01-19T23:02:15.456Z,6.00
2023-01-19T23:04:41.849Z,5.13
2023-01-19T23:07:09.334Z,3.65
2023-01-19T23:09:37.295Z,2.75
2023-01-19T23:12:04.002Z,3.13
2023-01-19T23:14:30.365Z,2.35
2023-01-19T23:16:56.730Z,2.45
2023-01-19T23:19:23.152Z,2.80
2023-01-19T23:21:53.227Z,2.17
2023-01-19T23:24:20.007Z,2.15
2023-01-19T23:26:51.120Z,2.88
2023-01-19T23:29:17.991Z,3.42
2023-01-19T23:31:47.080Z,4.03
2023-01-19T23:34:14.148Z,3.85
2023-01-19T23:36:42.195Z,4.88
2023-01-19T23:39:18.845Z,4.20
2023-01-19T23:41:45.922Z,4.50
2023-01-19T23:44:12.281Z,6.05
2023-01-19T23:46:38.965Z,3.90
2023-01-19T23:49:05.376Z,3.83
2023-01-19T23:51:33.345Z,4.93
2023-01-19T23:54:01.243Z,5.57
2023-01-19T23:56:33.506Z,5.00
2023-01-19T23:59:08.912Z,5.55
